Time;durP1;ratioP1;P1;durP2;ratioP2;P2;SDS_P1;SDS_P2;PMS_P1;PMS_P2;Temp;Humidity;BMP_temperature;BMP_pressure;BME280_temperature;BME280_humidity;BME280_pressure;Samples;Min_cycle;Max_cycle;Signal;HPM_P1;HPM_P2
2022/07/05 00:06:27;;;;;;;3.90;2.60;;;;;;;;;;10422524;28;20021;-94
2022/07/05 00:17:06;;;;;;;3.08;1.92;;;;;;;;;;10419936;28;20112;-94
2022/07/05 00:22:06;;;;;;;4.57;1.80;;;;;;;;;;10418598;28;20128;-94
2022/07/05 00:27:06;;;;;;;3.67;1.93;;;;;;;;;;10418214;28;20388;-93
2022/07/05 00:37:44;;;;;;;4.35;1.83;;;;;;;;;;10337904;28;20117;-92
2022/07/05 00:42:45;;;;;;;4.88;2.10;;;;;;;;;;10356754;28;20125;-91
2022/07/05 02:27:05;;;;;;;2.58;1.75;;;;;;;;;;10344839;28;20045;-73
2022/07/05 02:32:05;;;;;;;9.20;3.30;;;;;;;;;;10323555;28;20033;-77
2022/07/05 02:37:05;;;;;;;3.30;1.83;;;;;;;;;;10336286;28;20033;-77
2022/07/05 02:42:06;;;;;;;2.45;2.25;;;;;;;;;;10353957;28;20272;-77
2022/07/05 02:47:06;;;;;;;4.00;1.67;;;;;;;;;;10340089;28;20500;-73
2022/07/05 02:52:06;;;;;;;7.25;2.72;;;;;;;;;;10328742;28;20491;-75
2022/07/05 02:57:06;;;;;;;3.55;2.28;;;;;;;;;;10318200;28;20034;-75
2022/07/05 03:02:07;;;;;;;5.10;2.35;;;;;;;;;;10332685;28;20299;-75
2022/07/05 03:07:07;;;;;;;5.63;2.70;;;;;;;;;;10342457;28;20621;-75
2022/07/05 03:12:07;;;;;;;7.18;2.00;;;;;;;;;;10344703;28;20049;-79
2022/07/05 03:17:08;;;;;;;9.67;3.30;;;;;;;;;;10342394;28;20453;-72
2022/07/05 03:22:08;;;;;;;4.80;2.33;;;;;;;;;;10335974;28;20419;-75
2022/07/05 03:27:08;;;;;;;7.20;2.72;;;;;;;;;;10344886;28;20026;-77
2022/07/05 03:32:08;;;;;;;6.57;2.50;;;;;;;;;;10343118;28;20116;-75
2022/07/05 03:37:09;;;;;;;5.95;3.55;;;;;;;;;;10345311;28;20144;-72
2022/07/05 03:42:09;;;;;;;4.43;3.92;;;;;;;;;;10346771;28;20495;-77
2022/07/05 03:47:09;;;;;;;9.55;3.67;;;;;;;;;;10364968;28;20074;-76
2022/07/05 03:52:09;;;;;;;9.40;4.05;;;;;;;;;;10368288;23;20419;-77
2022/07/05 03:57:10;;;;;;;13.00;4.10;;;;;;;;;;10357236;28;20451;-77
2022/07/05 04:02:10;;;;;;;8.07;4.18;;;;;;;;;;10355938;28;20034;-77
2022/07/05 04:07:10;;;;;;;9.63;3.47;;;;;;;;;;10363059;28;20040;-75
2022/07/05 04:12:11;;;;;;;9.40;4.63;;;;;;;;;;10349634;28;20024;-76
2022/07/05 04:17:11;;;;;;;6.40;4.28;;;;;;;;;;10363712;28;20033;-72
2022/07/05 04:22:11;;;;;;;5.90;4.10;;;;;;;;;;10359725;28;20121;-74
2022/07/05 04:27:11;;;;;;;8.05;4.00;;;;;;;;;;10335259;28;20369;-71
2022/07/05 04:32:12;;;;;;;9.57;4.25;;;;;;;;;;10359905;28;20506;-74
2022/07/05 04:37:12;;;;;;;13.27;4.55;;;;;;;;;;10382139;28;20022;-71
2022/07/05 04:42:12;;;;;;;9.70;3.70;;;;;;;;;;10396803;28;20036;-71
2022/07/05 04:47:13;;;;;;;6.97;4.13;;;;;;;;;;10384266;28;20040;-75
2022/07/05 04:52:13;;;;;;;10.88;3.70;;;;;;;;;;10369031;28;20362;-73
2022/07/05 04:57:13;;;;;;;9.82;3.42;;;;;;;;;;10388959;28;20513;-74
2022/07/05 05:02:13;;;;;;;11.57;3.45;;;;;;;;;;10379528;28;20018;-73
2022/07/05 05:07:14;;;;;;;7.67;3.93;;;;;;;;;;10396403;28;20033;-75
2022/07/05 05:12:14;;;;;;;7.93;3.75;;;;;;;;;;10373320;28;20404;-74
2022/07/05 05:17:14;;;;;;;9.18;4.35;;;;;;;;;;10401173;28;20128;-73
2022/07/05 05:22:14;;;;;;;11.85;4.38;;;;;;;;;;10371811;28;20116;-74
2022/07/05 05:27:14;;;;;;;8.82;5.18;;;;;;;;;;10381236;28;20065;-75
2022/07/05 05:32:15;;;;;;;13.10;5.68;;;;;;;;;;10398112;28;20468;-72
2022/07/05 05:37:15;;;;;;;7.18;4.40;;;;;;;;;;10381677;28;20230;-72
2022/07/05 05:42:15;;;;;;;17.52;5.22;;;;;;;;;;10371201;28;20696;-72
2022/07/05 05:47:15;;;;;;;12.30;4.03;;;;;;;;;;10386333;28;20056;-71
2022/07/05 05:52:16;;;;;;;11.70;3.55;;;;;;;;;;10390573;28;20053;-71
2022/07/05 05:57:17;;;;;;;10.38;3.30;;;;;;;;;;10393184;28;20044;-71
2022/07/05 06:02:17;;;;;;;8.50;3.45;;;;;;;;;;10373009;28;20454;-74
2022/07/05 06:07:17;;;;;;;10.10;3.63;;;;;;;;;;10379453;28;20037;-76
2022/07/05 06:12:18;;;;;;;9.33;2.50;;;;;;;;;;10389895;28;20033;-77
2022/07/05 06:17:18;;;;;;;10.25;3.40;;;;;;;;;;10379254;28;20179;-71
2022/07/05 06:22:18;;;;;;;5.55;3.60;;;;;;;;;;10374573;28;20036;-73
2022/07/05 06:27:18;;;;;;;8.20;2.72;;;;;;;;;;10395348;28;20041;-73
2022/07/05 06:32:19;;;;;;;8.63;3.00;;;;;;;;;;10374810;28;20429;-73
2022/07/05 06:37:19;;;;;;;14.50;2.70;;;;;;;;;;10369872;28;20072;-72
2022/07/05 06:42:19;;;;;;;7.03;3.00;;;;;;;;;;10370980;28;20085;-75
2022/07/05 06:47:20;;;;;;;8.77;2.67;;;;;;;;;;10388370;28;20037;-73
2022/07/05 06:52:20;;;;;;;13.15;3.50;;;;;;;;;;10371389;28;20515;-76
2022/07/05 06:57:21;;;;;;;14.50;4.20;;;;;;;;;;10374004;28;20363;-72
2022/07/05 07:02:21;;;;;;;7.75;2.83;;;;;;;;;;10387945;28;20087;-72
2022/07/05 07:12:40;;;;;;;12.23;3.60;;;;;;;;;;10386063;28;21752;-75
2022/07/05 07:17:41;;;;;;;11.05;3.88;;;;;;;;;;10375591;28;20033;-71
2022/07/05 07:22:41;;;;;;;6.78;2.38;;;;;;;;;;10390211;28;20120;-72
2022/07/05 07:27:45;;;;;;;7.18;3.08;;;;;;;;;;10372183;28;20049;-73
2022/07/05 07:32:46;;;;;;;10.27;3.22;;;;;;;;;;10391624;28;20048;-74
2022/07/05 07:37:46;;;;;;;5.82;3.20;;;;;;;;;;10374789;28;20040;-72
2022/07/05 07:42:47;;;;;;;6.63;3.80;;;;;;;;;;10390078;28;20525;-71
2022/07/05 07:47:47;;;;;;;9.13;3.03;;;;;;;;;;10374306;28;20296;-71
2022/07/05 07:52:47;;;;;;;16.85;4.22;;;;;;;;;;10391502;28;20060;-74
2022/07/05 07:57:48;;;;;;;6.82;3.10;;;;;;;;;;10371850;28;20065;-71
2022/07/05 08:02:48;;;;;;;14.85;3.47;;;;;;;;;;10375399;28;20041;-75
2022/07/05 08:07:48;;;;;;;7.50;3.63;;;;;;;;;;10383732;28;20029;-72
2022/07/05 08:12:49;;;;;;;8.52;3.95;;;;;;;;;;10393288;28;20029;-72
2022/07/05 08:23:07;;;;;;;4.72;2.58;;;;;;;;;;10397225;28;20033;-72
2022/07/05 08:28:08;;;;;;;4.85;3.10;;;;;;;;;;10393124;28;20475;-72
2022/07/05 08:33:08;;;;;;;10.85;2.95;;;;;;;;;;10376933;28;20037;-76
2022/07/05 08:38:09;;;;;;;14.82;2.90;;;;;;;;;;10377731;28;20037;-73
2022/07/05 08:43:10;;;;;;;4.55;2.70;;;;;;;;;;10378925;28;20037;-72
2022/07/05 08:48:10;;;;;;;11.07;3.42;;;;;;;;;;10399940;28;20367;-75
2022/07/05 08:53:11;;;;;;;6.10;2.78;;;;;;;;;;10375079;28;20494;-76
2022/07/05 08:58:12;;;;;;;7.97;2.83;;;;;;;;;;10393935;28;20818;-71
2022/07/05 09:03:13;;;;;;;13.87;3.30;;;;;;;;;;10375429;28;20041;-73
2022/07/05 09:08:14;;;;;;;5.90;2.63;;;;;;;;;;10375634;28;20029;-70
2022/07/05 09:13:15;;;;;;;6.55;2.30;;;;;;;;;;10392464;28;20072;-72
2022/07/05 09:18:35;;;;;;;8.73;2.70;;;;;;;;;;10375859;28;20057;-72
2022/07/05 09:23:35;;;;;;;5.70;2.10;;;;;;;;;;10376391;28;20033;-76
2022/07/05 09:28:35;;;;;;;8.68;2.45;;;;;;;;;;10383563;28;20029;-71
2022/07/05 09:33:48;;;;;;;10.77;3.17;;;;;;;;;;10372426;28;20032;-69
2022/07/05 09:38:54;;;;;;;8.70;2.60;;;;;;;;;;10384683;28;20026;-77
2022/07/05 09:43:54;;;;;;;5.00;2.35;;;;;;;;;;10370298;28;20120;-72
2022/07/05 09:48:54;;;;;;;14.77;3.15;;;;;;;;;;10379760;28;20037;-73
2022/07/05 09:53:55;;;;;;;6.93;2.58;;;;;;;;;;10378188;28;20107;-72
2022/07/05 09:58:56;;;;;;;8.55;2.47;;;;;;;;;;10367822;28;20049;-72
2022/07/05 10:04:03;;;;;;;6.33;3.67;;;;;;;;;;10378429;28;20036;-72
2022/07/05 10:09:04;;;;;;;2.15;1.90;;;;;;;;;;10369440;28;20033;-72
2022/07/05 10:14:09;;;;;;;5.65;2.55;;;;;;;;;;10368079;28;20451;-71
2022/07/05 10:19:12;;;;;;;6.38;1.95;;;;;;;;;;10386531;28;20080;-73
2022/07/05 10:24:13;;;;;;;7.18;2.22;;;;;;;;;;10377360;28;20057;-73
2022/07/05 10:29:14;;;;;;;10.68;2.83;;;;;;;;;;10388946;28;20049;-75
2022/07/05 10:34:14;;;;;;;5.68;2.35;;;;;;;;;;10375412;28;20041;-71
2022/07/05 10:39:15;;;;;;;6.10;2.60;;;;;;;;;;10371367;28;20060;-75
2022/07/05 10:44:31;;;;;;;3.50;2.27;;;;;;;;;;10391863;28;20076;-72
2022/07/05 10:49:31;;;;;;;3.30;2.28;;;;;;;;;;10388451;28;20296;-72
2022/07/05 10:54:32;;;;;;;4.13;2.35;;;;;;;;;;10372393;28;20041;-72
2022/07/05 10:59:52;;;;;;;4.43;2.60;;;;;;;;;;10371883;28;20034;-74
2022/07/05 11:04:55;;;;;;;7.43;2.80;;;;;;;;;;10387860;28;20823;-72
2022/07/05 11:09:59;;;;;;;13.20;3.33;;;;;;;;;;10388814;28;20095;-72
2022/07/05 11:15:04;;;;;;;5.20;3.13;;;;;;;;;;10393024;28;20031;-70
2022/07/05 11:20:09;;;;;;;9.77;3.83;;;;;;;;;;10375662;28;20034;-71
2022/07/05 11:25:10;;;;;;;4.63;3.53;;;;;;;;;;10374117;28;20030;-71
2022/07/05 11:30:23;;;;;;;6.38;3.67;;;;;;;;;;10374426;28;20030;-75
2022/07/05 11:35:32;;;;;;;8.65;3.85;;;;;;;;;;10372905;28;20037;-69
2022/07/05 11:40:33;;;;;;;9.10;4.03;;;;;;;;;;10378076;28;20032;-71
2022/07/05 11:45:34;;;;;;;6.88;3.63;;;;;;;;;;10382583;28;20034;-70
2022/07/05 11:50:34;;;;;;;7.40;3.97;;;;;;;;;;10381191;28;20046;-73
2022/07/05 11:55:35;;;;;;;12.67;4.30;;;;;;;;;;10379905;28;20030;-72
2022/07/05 12:00:36;;;;;;;6.78;3.78;;;;;;;;;;10379242;28;20033;-74
2022/07/05 12:05:37;;;;;;;9.60;3.80;;;;;;;;;;10381224;28;20026;-72
2022/07/05 12:16:00;;;;;;;6.43;3.90;;;;;;;;;;10396493;28;20029;-73
2022/07/05 12:21:01;;;;;;;8.75;4.35;;;;;;;;;;10394623;28;20037;-73
2022/07/05 12:26:01;;;;;;;7.90;4.90;;;;;;;;;;10382607;28;20025;-75
2022/07/05 12:31:13;;;;;;;5.80;3.35;;;;;;;;;;10398157;28;20159;-72
2022/07/05 12:36:17;;;;;;;7.38;3.67;;;;;;;;;;10389879;28;20030;-72
2022/07/05 12:41:21;;;;;;;8.98;3.83;;;;;;;;;;10376864;28;20122;-74
2022/07/05 12:46:43;;;;;;;8.98;4.40;;;;;;;;;;10376988;28;20033;-71
2022/07/05 12:51:44;;;;;;;15.23;4.10;;;;;;;;;;10400473;28;20049;-73
2022/07/05 13:02:13;;;;;;;7.72;4.25;;;;;;;;;;10397045;28;20483;-73
2022/07/05 13:07:24;;;;;;;6.95;4.70;;;;;;;;;;10377201;28;20049;-72
2022/07/05 13:12:24;;;;;;;7.32;4.32;;;;;;;;;;10406666;28;20490;-72
2022/07/05 13:17:24;;;;;;;7.50;4.28;;;;;;;;;;10395213;28;20034;-72
2022/07/05 13:22:25;;;;;;;10.57;4.22;;;;;;;;;;10378466;28;20079;-72
2022/07/05 13:27:25;;;;;;;6.67;4.00;;;;;;;;;;10373913;28;20037;-71
2022/07/05 13:32:25;;;;;;;10.93;4.30;;;;;;;;;;10373212;28;20470;-73
2022/07/05 13:37:26;;;;;;;11.48;4.43;;;;;;;;;;10376784;28;20044;-72
2022/07/05 13:42:26;;;;;;;5.35;3.97;;;;;;;;;;10368507;28;20438;-72
2022/07/05 13:47:26;;;;;;;8.05;4.30;;;;;;;;;;10381255;28;20064;-74
2022/07/05 13:52:27;;;;;;;5.78;3.70;;;;;;;;;;10388422;28;20283;-75
2022/07/05 14:03:05;;;;;;;7.00;3.97;;;;;;;;;;10393167;28;20017;-73
2022/07/05 14:13:43;;;;;;;6.72;3.40;;;;;;;;;;10391827;28;20049;-74
2022/07/05 14:18:43;;;;;;;8.98;4.78;;;;;;;;;;10393432;28;20042;-73
2022/07/05 14:23:46;;;;;;;10.57;4.33;;;;;;;;;;10395695;28;20025;-70
2022/07/05 14:40:08;;;;;;;12.35;4.57;;;;;;;;;;10394735;28;20037;-73
2022/07/05 14:45:09;;;;;;;5.47;3.28;;;;;;;;;;10370750;28;20037;-75
2022/07/05 14:50:09;;;;;;;6.88;3.85;;;;;;;;;;10371969;28;20537;-73
2022/07/05 14:55:09;;;;;;;7.70;4.60;;;;;;;;;;10369973;28;20029;-72
2022/07/05 15:00:11;;;;;;;8.17;4.57;;;;;;;;;;10381326;28;20029;-73
2022/07/05 15:05:11;;;;;;;5.57;3.88;;;;;;;;;;10368876;28;20035;-72
2022/07/05 15:10:11;;;;;;;9.40;4.73;;;;;;;;;;10385255;28;20030;-72
2022/07/05 15:20:51;;;;;;;11.68;4.30;;;;;;;;;;10379389;28;20466;-74
2022/07/05 15:25:51;;;;;;;6.35;3.85;;;;;;;;;;10371029;28;20112;-73
2022/07/05 15:36:32;;;;;;;8.35;4.30;;;;;;;;;;10381645;28;20021;-73
2022/07/05 15:41:32;;;;;;;8.50;4.53;;;;;;;;;;10389343;28;20044;-73
2022/07/05 15:51:51;;;;;;;6.20;3.90;;;;;;;;;;10387462;28;20057;-74
2022/07/05 16:02:30;;;;;;;8.90;4.40;;;;;;;;;;10357197;28;20034;-74
2022/07/05 16:07:30;;;;;;;9.47;4.03;;;;;;;;;;10379924;28;20042;-74
2022/07/05 16:12:30;;;;;;;5.25;4.10;;;;;;;;;;10365938;28;20299;-71
2022/07/05 16:17:30;;;;;;;10.00;3.78;;;;;;;;;;10386037;28;20081;-72
2022/07/05 16:22:31;;;;;;;6.38;3.97;;;;;;;;;;10383060;28;20087;-75
2022/07/05 16:27:31;;;;;;;15.23;4.50;;;;;;;;;;10393376;28;20481;-72
2022/07/05 16:43:47;;;;;;;5.78;4.25;;;;;;;;;;10378200;28;20018;-71
2022/07/05 16:48:48;;;;;;;13.63;4.45;;;;;;;;;;10391370;28;20033;-71
2022/07/05 16:53:49;;;;;;;6.85;4.72;;;;;;;;;;10382443;28;20037;-74
2022/07/05 16:58:50;;;;;;;9.63;4.63;;;;;;;;;;10393980;28;20050;-70
2022/07/05 17:03:51;;;;;;;6.07;4.43;;;;;;;;;;10394457;28;20029;-71
2022/07/05 17:08:51;;;;;;;9.15;5.03;;;;;;;;;;10379803;28;20034;-71
2022/07/05 17:13:52;;;;;;;7.40;4.40;;;;;;;;;;10396297;28;20042;-71
2022/07/05 17:18:54;;;;;;;6.18;3.70;;;;;;;;;;10393517;28;20040;-71
2022/07/05 17:23:55;;;;;;;8.43;4.72;;;;;;;;;;10387054;28;20028;-74
2022/07/05 17:28:56;;;;;;;8.23;4.30;;;;;;;;;;10362799;28;20912;-71
2022/07/05 17:33:56;;;;;;;11.35;3.80;;;;;;;;;;10395302;28;20048;-74
2022/07/05 17:38:57;;;;;;;17.93;5.40;;;;;;;;;;10390134;28;20430;-73
2022/07/05 17:43:57;;;;;;;9.60;4.88;;;;;;;;;;10390355;28;20025;-73
2022/07/05 17:48:57;;;;;;;10.60;4.70;;;;;;;;;;10372947;28;20124;-72
2022/07/05 17:53:58;;;;;;;7.00;5.50;;;;;;;;;;10368942;23;20148;-71
2022/07/05 17:58:59;;;;;;;8.93;5.22;;;;;;;;;;10314224;28;20137;-71
2022/07/05 18:03:59;;;;;;;11.45;5.78;;;;;;;;;;10307881;28;20059;-71
2022/07/05 18:08:59;;;;;;;7.95;5.22;;;;;;;;;;10311790;28;20061;-71
2022/07/05 18:14:00;;;;;;;8.00;5.30;;;;;;;;;;10317863;28;20026;-75
2022/07/05 18:19:01;;;;;;;9.18;5.40;;;;;;;;;;10317828;28;20038;-70
2022/07/05 18:24:01;;;;;;;7.88;4.93;;;;;;;;;;10324700;28;20574;-71
2022/07/05 18:29:01;;;;;;;7.85;5.18;;;;;;;;;;10330225;28;20081;-74
2022/07/05 18:34:02;;;;;;;9.93;4.50;;;;;;;;;;10333707;28;20057;-71
2022/07/05 18:39:04;;;;;;;10.00;4.88;;;;;;;;;;10351456;28;20096;-74
2022/07/05 18:44:04;;;;;;;9.82;5.13;;;;;;;;;;10348362;28;20025;-72
2022/07/05 18:49:05;;;;;;;10.77;5.18;;;;;;;;;;10342788;28;20601;-74
2022/07/05 18:54:05;;;;;;;12.10;6.20;;;;;;;;;;10348520;28;20069;-73
2022/07/05 18:59:05;;;;;;;12.93;5.57;;;;;;;;;;10348333;28;20038;-73
2022/07/05 19:04:06;;;;;;;13.73;5.07;;;;;;;;;;10344452;28;20519;-73
2022/07/05 19:14:25;;;;;;;8.50;5.40;;;;;;;;;;10358268;28;20029;-73
2022/07/05 19:19:25;;;;;;;13.10;5.17;;;;;;;;;;10356224;28;20030;-72
2022/07/05 19:24:25;;;;;;;7.82;5.10;;;;;;;;;;10368974;28;20589;-72
2022/07/05 19:29:26;;;;;;;9.60;4.70;;;;;;;;;;10354195;28;20615;-73
2022/07/05 19:34:27;;;;;;;9.45;5.25;;;;;;;;;;10355945;28;20034;-72
2022/07/05 19:39:27;;;;;;;7.13;5.00;;;;;;;;;;10389774;23;20511;-72
2022/07/05 19:44:28;;;;;;;7.00;5.23;;;;;;;;;;10360978;28;20042;-72
2022/07/05 19:49:28;;;;;;;10.15;5.38;;;;;;;;;;10370331;28;20052;-77
2022/07/05 19:54:28;;;;;;;9.15;5.50;;;;;;;;;;10370262;28;20041;-74
2022/07/05 19:59:28;;;;;;;8.20;5.10;;;;;;;;;;10355103;28;20037;-72
2022/07/05 20:04:29;;;;;;;16.98;5.47;;;;;;;;;;10378269;28;20037;-73
2022/07/05 20:09:29;;;;;;;11.93;6.30;;;;;;;;;;10377380;28;20041;-73
2022/07/05 20:14:30;;;;;;;11.98;5.28;;;;;;;;;;10359500;28;20042;-78
2022/07/05 20:19:30;;;;;;;12.52;5.72;;;;;;;;;;10378433;28;20029;-73
2022/07/05 20:24:30;;;;;;;7.83;5.80;;;;;;;;;;10378879;28;20053;-72
2022/07/05 20:29:30;;;;;;;13.80;7.43;;;;;;;;;;10364841;28;20044;-73
2022/07/05 20:34:31;;;;;;;9.40;6.80;;;;;;;;;;10380046;28;20030;-73
2022/07/05 20:39:31;;;;;;;20.45;8.38;;;;;;;;;;10347820;28;20068;-73
2022/07/05 20:44:31;;;;;;;12.52;8.77;;;;;;;;;;10322122;28;20423;-74
2022/07/05 20:49:32;;;;;;;22.98;9.93;;;;;;;;;;10322831;28;20544;-73
2022/07/05 20:54:32;;;;;;;29.17;11.95;;;;;;;;;;10317238;28;20038;-72
2022/07/05 20:59:32;;;;;;;22.27;13.48;;;;;;;;;;10321810;28;20044;-73
2022/07/05 21:04:33;;;;;;;26.97;15.63;;;;;;;;;;10322818;28;20117;-71
2022/07/05 21:09:33;;;;;;;24.50;14.10;;;;;;;;;;10318434;28;20492;-73
2022/07/05 21:14:33;;;;;;;20.10;12.63;;;;;;;;;;10325795;23;21279;-72
2022/07/05 21:19:34;;;;;;;31.65;16.13;;;;;;;;;;10293972;28;20627;-72
2022/07/05 21:24:35;;;;;;;21.48;13.38;;;;;;;;;;10282841;28;20045;-73
2022/07/05 21:29:35;;;;;;;20.40;13.48;;;;;;;;;;10281405;28;20170;-74
2022/07/05 21:34:36;;;;;;;30.80;12.93;;;;;;;;;;10285479;28;20034;-72
2022/07/05 21:39:36;;;;;;;20.35;12.07;;;;;;;;;;10316692;28;20085;-72
2022/07/05 21:44:36;;;;;;;23.38;12.40;;;;;;;;;;10320724;28;20088;-74
2022/07/05 21:49:36;;;;;;;22.95;12.73;;;;;;;;;;10304266;28;20042;-77
2022/07/05 21:54:37;;;;;;;23.60;13.95;;;;;;;;;;10321809;28;20045;-73
2022/07/05 22:04:56;;;;;;;23.02;15.25;;;;;;;;;;10321040;28;20499;-72
2022/07/05 22:09:56;;;;;;;27.77;15.30;;;;;;;;;;10328642;28;20042;-73
2022/07/05 22:14:57;;;;;;;33.30;16.15;;;;;;;;;;10310684;28;20145;-73
2022/07/05 22:19:57;;;;;;;28.08;15.05;;;;;;;;;;10313567;28;20432;-76
2022/07/05 22:24:57;;;;;;;25.77;15.30;;;;;;;;;;10346079;28;20096;-76
2022/07/05 22:29:57;;;;;;;29.42;14.48;;;;;;;;;;10319370;28;20034;-73
2022/07/05 22:34:58;;;;;;;26.08;14.18;;;;;;;;;;10307531;28;20377;-77
2022/07/05 22:40:00;;;;;;;29.83;16.88;;;;;;;;;;10309340;28;20042;-77
2022/07/05 22:45:00;;;;;;;25.38;14.88;;;;;;;;;;10317915;28;20030;-75
2022/07/05 22:50:01;;;;;;;22.40;13.30;;;;;;;;;;10333831;28;20487;-73
2022/07/05 22:55:01;;;;;;;22.65;14.02;;;;;;;;;;10318844;28;20027;-76
2022/07/05 23:00:01;;;;;;;19.33;12.70;;;;;;;;;;10317778;28;20559;-76
2022/07/05 23:10:39;;;;;;;25.05;13.80;;;;;;;;;;10353276;28;20112;-74
2022/07/05 23:15:40;;;;;;;23.63;13.80;;;;;;;;;;10333467;28;20049;-77
2022/07/05 23:20:40;;;;;;;23.52;15.45;;;;;;;;;;10341148;28;20034;-78
2022/07/05 23:25:40;;;;;;;22.83;13.77;;;;;;;;;;10339963;28;20037;-73
2022/07/05 23:30:40;;;;;;;23.05;15.35;;;;;;;;;;10339252;28;20117;-77
2022/07/05 23:35:41;;;;;;;22.53;15.47;;;;;;;;;;10345956;28;20037;-78
2022/07/05 23:40:41;;;;;;;27.00;17.42;;;;;;;;;;10347243;28;20065;-74
2022/07/05 23:45:41;;;;;;;27.60;16.30;;;;;;;;;;10348914;28;20034;-79
2022/07/05 23:50:41;;;;;;;25.90;16.00;;;;;;;;;;10346122;28;20567;-75
2022/07/05 23:55:42;;;;;;;23.75;15.23;;;;;;;;;;10327308;28;20039;-76
